Decoded Metar for CZVL (Edmonton / Villeneuve in Canada) (IATA:N/A) | Meteo·Mobile Aviation Weather
aviador You're here:

CZVL Decoded Metar

Edmonton / Villeneuve in Canada
Report Time2019-10-18 13:00:00
UTC Time2019-10-18 13:16:05
Flight Rules vfr VFR
Wind160° at 02 kt
W.Decomp.*RWY 16: 1.9 kt HW 0.5 kt LCW
RWY 08: 0.8 kt HW 1.8 kt RCW
Visibility9999 m
Phenomena:N/A
Clouds:Overcast 100 Hf
Expected CloudBase > 800 ft AGL from Temp-Dew spread
Ceiling10,000 ft
Temp01°C
Dew Point-1°C (87% RH)
AAT-1.8°C
QNH993 hPa
Raw Report
METAR CZVL 181300Z AUTO 16002KT 9SM OVC100 01/M01 A2933 RMK SLP954=

Extra information for CZVL:More info

Metar Taf Metar & Taf Last 4 Metars F.Rules Stats Wind Profile Meteogram Temp Stats Metar ALERT Operation Metar Decoded Social comments